This is the latest recevied weather packets stored in our database for station/object KQ4DLB-13. If no packets are shown the sender has not sent any weather packets the latest 1 day(s).
| Time | Temp. | Humidity | Pressure | Rain* | Wind** | Luminosity | Snow |
|---|---|---|---|---|---|---|---|
| 1777998902 | 17.78° C | 74% | 986.3 hPa | 0 mm | 2.68 m/s, 339° | 130 W/m² | - |
| 1777998603 | 17.78° C | 73% | 986.4 hPa | 0 mm | 3.13 m/s, 320° | 129 W/m² | - |
| 1777998301 | 17.78° C | 73% | 986.6 hPa | 0 mm | 2.68 m/s, 330° | 111 W/m² | - |
| 1777998002 | 18.33° C | 71% | 986.5 hPa | 0 mm | 2.68 m/s, 156° | - | - |
| 1777997702 | 18.33° C | 70% | 986.8 hPa | 0 mm | 2.68 m/s, 292° | - | - |
| 1777997402 | 18.33° C | 69% | 987 hPa | 0 mm | 2.24 m/s, 166° | - | - |
| 1777997102 | 18.33° C | 68% | 987 hPa | 0 mm | 2.68 m/s, 321° | - | - |
| 1777996802 | 18.33° C | 68% | 987.1 hPa | 0 mm | 3.58 m/s, 310° | - | - |
| 1777996502 | 18.89° C | 67% | 987.2 hPa | 0 mm | 3.13 m/s, 339° | 113 W/m² | - |
| 1777996202 | 18.89° C | 67% | 987.2 hPa | 0 mm | 3.13 m/s, 319° | 145 W/m² | - |
| 1777995902 | 18.89° C | 67% | 987.2 hPa | 0 mm | 3.13 m/s, 332° | 171 W/m² | - |
| 1777995602 | 18.89° C | 67% | 987.3 hPa | 0 mm | 3.13 m/s, 299° | 188 W/m² | - |
| 1777995302 | 18.89° C | 67% | 987.4 hPa | 0 mm | 2.68 m/s, 31° | 205 W/m² | - |
| 1777995002 | 18.89° C | 66% | 987.4 hPa | 0 mm | 2.68 m/s, 23° | 199 W/m² | - |
| 1777994702 | 18.89° C | 66% | 987.3 hPa | 0 mm | 3.13 m/s, 305° | 217 W/m² | - |
| 1777994402 | 18.89° C | 66% | 987.3 hPa | 0 mm | 3.13 m/s, 351° | 224 W/m² | - |
| 1777994102 | 18.89° C | 66% | 987.3 hPa | 0 mm | 3.13 m/s, 339° | 247 W/m² | - |
| 1777993802 | 18.89° C | 66% | 987.3 hPa | 0 mm | 2.24 m/s, 8° | 285 W/m² | - |
| 1777993502 | 18.89° C | 66% | 987.3 hPa | 0 mm | 1.79 m/s, 32° | 291 W/m² | - |
| 1777993202 | 18.33° C | 66% | 987.3 hPa | 0 mm | 2.24 m/s, 243° | 283 W/m² | - |
| 1777992901 | 18.33° C | 66% | 987.3 hPa | 0 mm | 3.13 m/s, 343° | 280 W/m² | - |
| 1777992603 | 18.33° C | 67% | 987.3 hPa | 0 mm | 2.68 m/s, 332° | 254 W/m² | - |
| 1777992302 | 18.33° C | 67% | 987.2 hPa | 0 mm | 3.58 m/s, 340° | 228 W/m² | - |
| 1777992002 | 18.33° C | 67% | 987.1 hPa | 0 mm | 3.13 m/s, 230° | 224 W/m² | - |
| 1777991702 | 17.78° C | 68% | 987 hPa | 0 mm | 2.24 m/s, 197° | 237 W/m² | - |
* Rain latest hour (hover to see other rain measurements)
** Current wind speed in m/s (hover to see current wind gust speed)